Center — 9HA2615 — position and weather

sailwx.info

Track history (hours):
 
Tides and Currents Weather Stations Pressure Air Temp Water Temp Dewpoint Dewpoint Depression Visibility Wind Speed Wind Dir Waves Ship Positions

Center

Last reported at 2015-May-27 16:19 UTC. Time now 2015-May-27 21:57 UTC.
Position N 33°54' W 118°27'.

Length 274 m; draft 16.9 m.

Type: Tanker. MMSI: 215030000.

Date/timePositionNaut miles runAvg speedWind from/ knotsBaromVisibWave heightAir tempDewpointWater temp
2015-May-27 16:19N 33°54' W 118°27'1 1.9
2015-May-27 15:33N 33°53' W 118°28'1 1.5
2015-May-27 14:33N 33°54' W 118°29'0 0.2
2015-May-27 13:32N 33°54' W 118°29'0 0.2
2015-May-27 12:32N 33°54' W 118°30'2 2.5
2015-May-27 11:33N 33°52' W 118°30'3110.3
2015-May-27 08:33N 33°28' W 118°07'1211.9
2015-May-27 07:33N 33°17' W 118°01'1212.2
2015-May-27 06:33N 33°06' W 117°55'1212.2
2015-May-27 05:33N 32°54' W 117°51'1212.1
2015-May-27 04:33N 32°43' W 117°46'1211.9
2015-May-27 03:33N 32°31' W 117°42'1211.9
2015-May-27 02:33N 32°20' W 117°38'1211.9
2015-May-27 01:33N 32°09' W 117°34'  
Track history (hours):
 
Tides and Currents Weather Stations Pressure Air Temp Water Temp Dewpoint Dewpoint Depression Visibility Wind Speed Wind Dir Waves Ship Positions

Center

Last reported at 2015-May-27 16:19 UTC. Time now 2015-May-27 21:57 UTC.
Position N 33°54' W 118°27'.

Length 274 m; draft 16.9 m.

Type: Tanker. MMSI: 215030000.

Date/timePositionNaut miles runAvg speedWind from/ knotsBaromVisibWave heightAir tempDewpointWater temp
2015-May-27 16:19N 33°54' W 118°27'1 1.9
2015-May-27 15:33N 33°53' W 118°28'1 1.5
2015-May-27 14:33N 33°54' W 118°29'0 0.2
2015-May-27 13:32N 33°54' W 118°29'0 0.2
2015-May-27 12:32N 33°54' W 118°30'2 2.5
2015-May-27 11:33N 33°52' W 118°30'3110.3
2015-May-27 08:33N 33°28' W 118°07'1211.9
2015-May-27 07:33N 33°17' W 118°01'1212.2
2015-May-27 06:33N 33°06' W 117°55'1212.2
2015-May-27 05:33N 32°54' W 117°51'1212.1
2015-May-27 04:33N 32°43' W 117°46'1211.9
2015-May-27 03:33N 32°31' W 117°42'1211.9
2015-May-27 02:33N 32°20' W 117°38'1211.9
2015-May-27 01:33N 32°09' W 117°34'  

Dump ship's entire track history